• Join FlightAware (Why Join?)
  • Login
  • US Flag 
02:43AM EST


 

Airport Tracker/Info


-or-


 

Live Flight TrackerFlight Track Log ✈ N605PR ✈ 01-Apr-2014 ✈ KCRW - KMBS

Flight Track Log - Related Links

Times and Time Zones

All times are in EDT time to prevent confusion due to time zone crossing. See the N605PR flight status page for this flight to view local times or setup timezone preferences in your user account.

Time Position Orientation Groundspeed Altitude Reporting Facility
EDT Latitude Longitude Course Direction KTS MPH feet Rate Location/Type
10:37AM 38.3558 -81.6436 340° North 194 223 36,000  Level Indianapolis Center
10:37AM 38.3583 -81.6628 279° West 213 245 3,800 -29,460 Descending Indianapolis Center
10:38AM 38.3897 -81.7056 313° West 245 282 5,600 2,520 Climbing Indianapolis Center
10:39AM 38.4603 -81.7386 340° North 265 305 8,500 2,100 Climbing Indianapolis Center
10:40AM 38.5408 -81.7739 341° North 265 305 10,000 1,560 Climbing Indianapolis Center
10:41AM 38.6164 -81.8058 342° North 278 320 11,800 2,100 Climbing Indianapolis Center
10:42AM 38.8851 -81.8175 340° North  Level FlightAware Approximate
10:42AM 38.6911 -81.8383 341° North 280 322 14,400  Level Indianapolis Center
10:43AM 38.7658 -81.8706 341° North 280 322 16,700 1,980 Climbing Indianapolis Center
10:44AM 38.8453 -81.9036 342° North 294 338 18,600 1,980 Climbing Indianapolis Center
10:45AM 38.9347 -81.9436 341° North 316 364 20,800 1,980 Climbing Indianapolis Center
10:46AM 39.0208 -81.9814 341° North 323 372 22,800 1,920 Climbing Indianapolis Center
10:47AM 39.1100 -82.0203 341° North 334 384 24,800 2,100 Climbing Indianapolis Center
10:48AM 39.2161 -82.0661 341° North 334 384 27,200 2,100 Climbing Indianapolis Center
10:49AM 39.3061 -82.1036 342° North 335 386 29,200 1,800 Climbing Indianapolis Center
10:50AM 39.3928 -82.1428 341° North 335 386 31,000 1,560 Climbing Indianapolis Center
10:51AM 39.4847 -82.1814 342° North 341 392 32,500 1,380 Climbing Indianapolis Center
10:52AM 39.5769 -82.2239 340° North 349 402 33,900 1,140 Climbing Indianapolis Center
10:53AM 39.6731 -82.2658 341° North 359 413 34,900 960 Climbing Indianapolis Center
10:54AM 39.7869 -82.3153 342° North 360 414 36,000 480 Climbing Indianapolis Center
10:55AM 39.8842 -82.3594 341° North 367 422 36,000  Level Indianapolis Center
10:56AM 39.9886 -82.4044 342° North 388 447 36,000  Level Indianapolis Center
10:57AM 40.0925 -82.4528 340° North 395 455 36,000  Level Indianapolis Center
10:58AM 40.1975 -82.4983 342° North 395 455 36,000  Level Indianapolis Center
10:59AM 40.3169 -82.5536 341° North 396 456 36,000  Level Indianapolis Center
11:00AM 40.4244 -82.6003 342° North 398 458 36,000 -300 Level Indianapolis Center
11:01AM 40.5317 -82.6489 341° North 399 459 35,400 -720 Descending Indianapolis Center
11:02AM 40.6411 -82.6981 341° North 404 465 34,600 -720 Descending Indianapolis Center
11:03AM 40.7500 -82.7486 341° North 406 467 34,000 -300 Descending Indianapolis Center
11:04AM 40.8594 -82.7983 341° North 410 472 34,000  Level Indianapolis Center
11:05AM 40.9869 -82.8553 341° North 410 472 34,000  Level Indianapolis Center
11:07AM 41.0956 -82.9061 341° North 410 472 34,000  Level Indianapolis Center
11:08AM 41.2072 -82.9558 341° North 413 475 34,000  Level Indianapolis Center
11:09AM 41.3172 -83.0103 340° North 414 476 34,000 -540 Level Indianapolis Center
11:10AM 41.4275 -83.0597 341° North 414 476 33,000 -1,200 Descending Indianapolis Center
11:11AM 41.5369 -83.1108 341° North 414 476 31,600 -1,260 Descending Indianapolis Center
11:12AM 41.6906 -83.1850 340° North 412 474 30,000 -720 Descending Cleveland Center
11:13AM 41.8000 -83.2336 342° North 412 474 30,000  Level Cleveland Center
11:14AM 41.9008 -83.2847 339° North 412 474 30,000  Level Cleveland Center
11:15AM 42.0333 -83.3458 341° North 421 484 30,000  Level Cleveland Center
11:16AM 42.1481 -83.4014 340° North 428 493 30,000 -120 Level Cleveland Center
11:17AM 42.2636 -83.4558 341° North 430 495 29,800 -960 Descending Cleveland Center
11:18AM 42.3722 -83.5069 341° North 420 483 28,100 -1,800 Descending Cleveland Center
11:19AM 42.4697 -83.5556 340° North 404 465 26,200 -1,800 Descending Cleveland Center
11:20AM 42.5722 -83.6042 341° North 396 456 24,500 -1,080 Descending Cleveland Center
11:21AM 42.6692 -83.6528 340° North 379 436 24,000 -780 Descending Cleveland Center
11:22AM 42.7656 -83.6981 341° North 374 430 23,000 -1,980 Descending Cleveland Center
11:23AM 42.8756 -83.7547 339° North 358 412 20,000 -2,880 Descending Cleveland Center
11:24AM 42.9672 -83.7964 342° North 353 406 17,200 -2,640 Descending Cleveland Center
11:25AM 43.0544 -83.8422 339° North 344 396 14,600 -2,460 Descending Cleveland Center
11:26AM 43.1408 -83.8831 341° North 335 386 12,200 -2,460 Descending Cleveland Center
11:27AM 43.2272 -83.9261 340° North 314 361 9,600 -2,340 Descending Cleveland Center
11:28AM 43.3117 -83.9394 353° North 297 342 7,500 -1,920 Descending Cleveland Center
11:29AM 43.3883 -83.9422 358° North 268 308 5,700 -1,680 Descending Cleveland Center
11:30AM 43.4617 -83.9458 358° North 252 290 4,100 -1,500 Descending Cleveland Center
11:31AM 43.5289 -83.9486 358° North 233 268 2,700 -1,020 Descending Cleveland Center
11:33AM 43.5750 -83.9664 344° North 165 190 2,100 -540 Descending Cleveland Center
11:34AM 43.5783 -84.0097 276° West 103 119 1,700 -420 Descending Cleveland Center
11:35AM 43.5614 -84.0419 234° Southwest 103 119 1,300 -540 Descending Cleveland Center
11:36AM 43.5422 -84.0678 224° Southwest 96 110 700 -600 Descending Cleveland Center